<?xml version="1.0" encoding="UTF-8" standalone="no" ?>
<gpx xmlns="http://www.topografix.com/GPX/1/1" xmlns:xsi="http://www.w3.org/2001/XMLSchema-instance" xsi:schemaLocation="http://www.topografix.com/GPX/1/1 http://www.topografix.com/GPX/1/1/gpx.xsd" version="1.1" creator="VisuGPX - https://www.visugpx.com">
  <metadata>
    <name>palise</name>
    <desc><![CDATA[Agréable rando automnale]]></desc>
  </metadata>
  <trk>
    <name><![CDATA[palise]]></name>
    <trkseg>
      <trkpt lat="47.37148" lon="6.0913">
        <ele>189.036377</ele>
        <time>2011-10-15T15:25:04Z</time>
      </trkpt>
      <trkpt lat="47.3715" lon="6.09127">
        <ele>189.036377</ele>
        <time>2011-10-15T15:25:07Z</time>
      </trkpt>
      <trkpt lat="47.37158" lon="6.09115">
        <ele>188.075073</ele>
        <time>2011-10-15T15:25:21Z</time>
      </trkpt>
      <trkpt lat="47.37166" lon="6.09119">
        <ele>187.11377</ele>
        <time>2011-10-15T15:25:30Z</time>
      </trkpt>
      <trkpt lat="47.37162" lon="6.09125">
        <ele>187.11377</ele>
        <time>2011-10-15T15:25:44Z</time>
      </trkpt>
      <trkpt lat="47.37169" lon="6.09136">
        <ele>187.11377</ele>
        <time>2011-10-15T15:25:47Z</time>
      </trkpt>
      <trkpt lat="47.37175" lon="6.09143">
        <ele>186.633179</ele>
        <time>2011-10-15T15:25:51Z</time>
      </trkpt>
      <trkpt lat="47.37184" lon="6.09158">
        <ele>185.191162</ele>
        <time>2011-10-15T15:26:00Z</time>
      </trkpt>
      <trkpt lat="47.37189" lon="6.09164">
        <ele>185.191162</ele>
        <time>2011-10-15T15:26:04Z</time>
      </trkpt>
      <trkpt lat="47.37196" lon="6.09201">
        <ele>182.787842</ele>
        <time>2011-10-15T15:26:21Z</time>
      </trkpt>
      <trkpt lat="47.37199" lon="6.09228">
        <ele>181.345825</ele>
        <time>2011-10-15T15:26:34Z</time>
      </trkpt>
      <trkpt lat="47.37143" lon="6.09183">
        <ele>180.384521</ele>
        <time>2011-10-15T15:26:52Z</time>
      </trkpt>
      <trkpt lat="47.37134" lon="6.09185">
        <ele>179.903809</ele>
        <time>2011-10-15T15:27:05Z</time>
      </trkpt>
      <trkpt lat="47.37144" lon="6.09181">
        <ele>180.384521</ele>
        <time>2011-10-15T15:27:15Z</time>
      </trkpt>
      <trkpt lat="47.37147" lon="6.09191">
        <ele>179.903809</ele>
        <time>2011-10-15T15:27:27Z</time>
      </trkpt>
      <trkpt lat="47.37143" lon="6.09196">
        <ele>179.903809</ele>
        <time>2011-10-15T15:27:32Z</time>
      </trkpt>
      <trkpt lat="47.37133" lon="6.09215">
        <ele>179.903809</ele>
        <time>2011-10-15T15:27:49Z</time>
      </trkpt>
      <trkpt lat="47.37123" lon="6.09232">
        <ele>180.384521</ele>
        <time>2011-10-15T15:28:05Z</time>
      </trkpt>
      <trkpt lat="47.37122" lon="6.0924">
        <ele>179.903809</ele>
        <time>2011-10-15T15:28:19Z</time>
      </trkpt>
      <trkpt lat="47.37132" lon="6.09261">
        <ele>180.384521</ele>
        <time>2011-10-15T15:28:35Z</time>
      </trkpt>
      <trkpt lat="47.37128" lon="6.09281">
        <ele>180.384521</ele>
        <time>2011-10-15T15:28:49Z</time>
      </trkpt>
      <trkpt lat="47.37127" lon="6.09283">
        <ele>180.384521</ele>
        <time>2011-10-15T15:28:50Z</time>
      </trkpt>
      <trkpt lat="47.37128" lon="6.09289">
        <ele>180.384521</ele>
        <time>2011-10-15T15:28:55Z</time>
      </trkpt>
      <trkpt lat="47.37119" lon="6.09307">
        <ele>180.384521</ele>
        <time>2011-10-15T15:29:08Z</time>
      </trkpt>
      <trkpt lat="47.37116" lon="6.09314">
        <ele>180.865234</ele>
        <time>2011-10-15T15:29:14Z</time>
      </trkpt>
      <trkpt lat="47.37111" lon="6.09342">
        <ele>183.749023</ele>
        <time>2011-10-15T15:29:22Z</time>
      </trkpt>
      <trkpt lat="47.37107" lon="6.09354">
        <ele>187.11377</ele>
        <time>2011-10-15T15:29:27Z</time>
      </trkpt>
      <trkpt lat="47.37107" lon="6.09355">
        <ele>187.59436</ele>
        <time>2011-10-15T15:29:28Z</time>
      </trkpt>
      <trkpt lat="47.37101" lon="6.09366">
        <ele>189.036377</ele>
        <time>2011-10-15T15:29:35Z</time>
      </trkpt>
      <trkpt lat="47.37096" lon="6.09374">
        <ele>193.362305</ele>
        <time>2011-10-15T15:29:41Z</time>
      </trkpt>
      <trkpt lat="47.37096" lon="6.09379">
        <ele>194.32373</ele>
        <time>2011-10-15T15:29:43Z</time>
      </trkpt>
      <trkpt lat="47.37093" lon="6.09392">
        <ele>197.688232</ele>
        <time>2011-10-15T15:29:51Z</time>
      </trkpt>
      <trkpt lat="47.37086" lon="6.09409">
        <ele>200.091675</ele>
        <time>2011-10-15T15:29:59Z</time>
      </trkpt>
      <trkpt lat="47.3708" lon="6.09429">
        <ele>203.456177</ele>
        <time>2011-10-15T15:30:11Z</time>
      </trkpt>
      <trkpt lat="47.3708" lon="6.09432">
        <ele>203.93689</ele>
        <time>2011-10-15T15:30:13Z</time>
      </trkpt>
      <trkpt lat="47.37073" lon="6.09451">
        <ele>207.782104</ele>
        <time>2011-10-15T15:30:25Z</time>
      </trkpt>
      <trkpt lat="47.37069" lon="6.09468">
        <ele>211.146729</ele>
        <time>2011-10-15T15:30:37Z</time>
      </trkpt>
      <trkpt lat="47.37073" lon="6.09468">
        <ele>213.550049</ele>
        <time>2011-10-15T15:30:48Z</time>
      </trkpt>
      <trkpt lat="47.37069" lon="6.09473">
        <ele>216.43396</ele>
        <time>2011-10-15T15:31:09Z</time>
      </trkpt>
      <trkpt lat="47.37063" lon="6.09488">
        <ele>217.395386</ele>
        <time>2011-10-15T15:31:21Z</time>
      </trkpt>
      <trkpt lat="47.3704" lon="6.0951">
        <ele>217.875977</ele>
        <time>2011-10-15T15:31:40Z</time>
      </trkpt>
      <trkpt lat="47.37029" lon="6.09525">
        <ele>217.875977</ele>
        <time>2011-10-15T15:31:53Z</time>
      </trkpt>
      <trkpt lat="47.37009" lon="6.09553">
        <ele>217.875977</ele>
        <time>2011-10-15T15:32:11Z</time>
      </trkpt>
      <trkpt lat="47.37001" lon="6.09567">
        <ele>217.875977</ele>
        <time>2011-10-15T15:32:21Z</time>
      </trkpt>
      <trkpt lat="47.36983" lon="6.09599">
        <ele>217.875977</ele>
        <time>2011-10-15T15:32:40Z</time>
      </trkpt>
      <trkpt lat="47.36967" lon="6.09613">
        <ele>218.356567</ele>
        <time>2011-10-15T15:32:54Z</time>
      </trkpt>
      <trkpt lat="47.3695" lon="6.09624">
        <ele>217.875977</ele>
        <time>2011-10-15T15:33:08Z</time>
      </trkpt>
      <trkpt lat="47.36947" lon="6.09625">
        <ele>218.356567</ele>
        <time>2011-10-15T15:33:11Z</time>
      </trkpt>
      <trkpt lat="47.36944" lon="6.09625">
        <ele>218.356567</ele>
        <time>2011-10-15T15:33:16Z</time>
      </trkpt>
      <trkpt lat="47.36934" lon="6.09636">
        <ele>218.83728</ele>
        <time>2011-10-15T15:33:27Z</time>
      </trkpt>
      <trkpt lat="47.36922" lon="6.09663">
        <ele>218.83728</ele>
        <time>2011-10-15T15:33:44Z</time>
      </trkpt>
      <trkpt lat="47.36921" lon="6.09666">
        <ele>218.83728</ele>
        <time>2011-10-15T15:33:47Z</time>
      </trkpt>
      <trkpt lat="47.36918" lon="6.09681">
        <ele>218.83728</ele>
        <time>2011-10-15T15:34:01Z</time>
      </trkpt>
      <trkpt lat="47.36908" lon="6.09693">
        <ele>218.83728</ele>
        <time>2011-10-15T15:34:11Z</time>
      </trkpt>
      <trkpt lat="47.3689" lon="6.09709">
        <ele>218.83728</ele>
        <time>2011-10-15T15:34:27Z</time>
      </trkpt>
      <trkpt lat="47.36886" lon="6.09711">
        <ele>218.83728</ele>
        <time>2011-10-15T15:34:43Z</time>
      </trkpt>
      <trkpt lat="47.36883" lon="6.09716">
        <ele>218.83728</ele>
        <time>2011-10-15T15:34:58Z</time>
      </trkpt>
      <trkpt lat="47.36877" lon="6.09727">
        <ele>218.83728</ele>
        <time>2011-10-15T15:35:10Z</time>
      </trkpt>
      <trkpt lat="47.36867" lon="6.09747">
        <ele>219.317993</ele>
        <time>2011-10-15T15:35:26Z</time>
      </trkpt>
      <trkpt lat="47.36859" lon="6.09767">
        <ele>219.798584</ele>
        <time>2011-10-15T15:35:40Z</time>
      </trkpt>
      <trkpt lat="47.36852" lon="6.09777">
        <ele>219.798584</ele>
        <time>2011-10-15T15:35:50Z</time>
      </trkpt>
      <trkpt lat="47.36838" lon="6.09787">
        <ele>219.317993</ele>
        <time>2011-10-15T15:36:04Z</time>
      </trkpt>
      <trkpt lat="47.36826" lon="6.09809">
        <ele>219.317993</ele>
        <time>2011-10-15T15:36:18Z</time>
      </trkpt>
      <trkpt lat="47.36817" lon="6.09816">
        <ele>219.798584</ele>
        <time>2011-10-15T15:36:26Z</time>
      </trkpt>
      <trkpt lat="47.36795" lon="6.09842">
        <ele>219.798584</ele>
        <time>2011-10-15T15:36:45Z</time>
      </trkpt>
      <trkpt lat="47.36782" lon="6.09856">
        <ele>219.317993</ele>
        <time>2011-10-15T15:36:58Z</time>
      </trkpt>
      <trkpt lat="47.36779" lon="6.09861">
        <ele>218.83728</ele>
        <time>2011-10-15T15:37:02Z</time>
      </trkpt>
      <trkpt lat="47.36773" lon="6.09876">
        <ele>219.317993</ele>
        <time>2011-10-15T15:37:12Z</time>
      </trkpt>
      <trkpt lat="47.36767" lon="6.09885">
        <ele>219.317993</ele>
        <time>2011-10-15T15:37:18Z</time>
      </trkpt>
      <trkpt lat="47.3676" lon="6.09896">
        <ele>219.798584</ele>
        <time>2011-10-15T15:37:25Z</time>
      </trkpt>
      <trkpt lat="47.36746" lon="6.09914">
        <ele>219.317993</ele>
        <time>2011-10-15T15:37:41Z</time>
      </trkpt>
      <trkpt lat="47.36732" lon="6.09936">
        <ele>219.317993</ele>
        <time>2011-10-15T15:37:58Z</time>
      </trkpt>
      <trkpt lat="47.36728" lon="6.09941">
        <ele>219.317993</ele>
        <time>2011-10-15T15:38:01Z</time>
      </trkpt>
      <trkpt lat="47.36725" lon="6.09945">
        <ele>219.317993</ele>
        <time>2011-10-15T15:38:05Z</time>
      </trkpt>
      <trkpt lat="47.36713" lon="6.09967">
        <ele>219.317993</ele>
        <time>2011-10-15T15:38:22Z</time>
      </trkpt>
      <trkpt lat="47.36711" lon="6.09972">
        <ele>219.798584</ele>
        <time>2011-10-15T15:38:26Z</time>
      </trkpt>
      <trkpt lat="47.36706" lon="6.09986">
        <ele>219.317993</ele>
        <time>2011-10-15T15:38:37Z</time>
      </trkpt>
      <trkpt lat="47.36697" lon="6.10001">
        <ele>219.317993</ele>
        <time>2011-10-15T15:38:55Z</time>
      </trkpt>
      <trkpt lat="47.36682" lon="6.10006">
        <ele>219.798584</ele>
        <time>2011-10-15T15:39:27Z</time>
      </trkpt>
      <trkpt lat="47.36676" lon="6.10017">
        <ele>219.798584</ele>
        <time>2011-10-15T15:39:39Z</time>
      </trkpt>
      <trkpt lat="47.36674" lon="6.10021">
        <ele>219.798584</ele>
        <time>2011-10-15T15:39:42Z</time>
      </trkpt>
      <trkpt lat="47.3666" lon="6.10029">
        <ele>220.279175</ele>
        <time>2011-10-15T15:39:54Z</time>
      </trkpt>
      <trkpt lat="47.36659" lon="6.10031">
        <ele>219.798584</ele>
        <time>2011-10-15T15:40:10Z</time>
      </trkpt>
      <trkpt lat="47.36659" lon="6.10031">
        <ele>219.798584</ele>
        <time>2011-10-15T15:40:21Z</time>
      </trkpt>
      <trkpt lat="47.36648" lon="6.10038">
        <ele>219.798584</ele>
        <time>2011-10-15T15:40:33Z</time>
      </trkpt>
      <trkpt lat="47.36638" lon="6.10041">
        <ele>219.798584</ele>
        <time>2011-10-15T15:40:51Z</time>
      </trkpt>
      <trkpt lat="47.36626" lon="6.10057">
        <ele>219.317993</ele>
        <time>2011-10-15T15:41:07Z</time>
      </trkpt>
      <trkpt lat="47.36608" lon="6.10069">
        <ele>218.83728</ele>
        <time>2011-10-15T15:41:38Z</time>
      </trkpt>
      <trkpt lat="47.36601" lon="6.10074">
        <ele>219.317993</ele>
        <time>2011-10-15T15:41:45Z</time>
      </trkpt>
      <trkpt lat="47.36592" lon="6.10089">
        <ele>219.317993</ele>
        <time>2011-10-15T15:41:54Z</time>
      </trkpt>
      <trkpt lat="47.36591" lon="6.1009">
        <ele>219.317993</ele>
        <time>2011-10-15T15:41:55Z</time>
      </trkpt>
      <trkpt lat="47.36586" lon="6.10094">
        <ele>219.317993</ele>
        <time>2011-10-15T15:42:00Z</time>
      </trkpt>
      <trkpt lat="47.3658" lon="6.10108">
        <ele>218.83728</ele>
        <time>2011-10-15T15:42:04Z</time>
      </trkpt>
      <trkpt lat="47.36572" lon="6.10114">
        <ele>219.317993</ele>
        <time>2011-10-15T15:42:14Z</time>
      </trkpt>
      <trkpt lat="47.36566" lon="6.10117">
        <ele>219.317993</ele>
        <time>2011-10-15T15:42:31Z</time>
      </trkpt>
      <trkpt lat="47.36553" lon="6.10116">
        <ele>219.317993</ele>
        <time>2011-10-15T15:42:54Z</time>
      </trkpt>
      <trkpt lat="47.36529" lon="6.10129">
        <ele>219.317993</ele>
        <time>2011-10-15T15:43:18Z</time>
      </trkpt>
      <trkpt lat="47.36509" lon="6.10148">
        <ele>218.83728</ele>
        <time>2011-10-15T15:43:39Z</time>
      </trkpt>
      <trkpt lat="47.36491" lon="6.10157">
        <ele>218.83728</ele>
        <time>2011-10-15T15:43:56Z</time>
      </trkpt>
      <trkpt lat="47.36482" lon="6.10162">
        <ele>218.83728</ele>
        <time>2011-10-15T15:44:04Z</time>
      </trkpt>
      <trkpt lat="47.3647" lon="6.10171">
        <ele>218.83728</ele>
        <time>2011-10-15T15:44:12Z</time>
      </trkpt>
      <trkpt lat="47.36448" lon="6.10186">
        <ele>218.83728</ele>
        <time>2011-10-15T15:44:29Z</time>
      </trkpt>
      <trkpt lat="47.36434" lon="6.10198">
        <ele>218.83728</ele>
        <time>2011-10-15T15:44:41Z</time>
      </trkpt>
      <trkpt lat="47.36419" lon="6.102">
        <ele>219.317993</ele>
        <time>2011-10-15T15:44:53Z</time>
      </trkpt>
      <trkpt lat="47.36415" lon="6.10206">
        <ele>218.83728</ele>
        <time>2011-10-15T15:45:02Z</time>
      </trkpt>
      <trkpt lat="47.36403" lon="6.10206">
        <ele>219.317993</ele>
        <time>2011-10-15T15:45:39Z</time>
      </trkpt>
      <trkpt lat="47.36392" lon="6.10225">
        <ele>218.83728</ele>
        <time>2011-10-15T15:46:07Z</time>
      </trkpt>
      <trkpt lat="47.36368" lon="6.10234">
        <ele>218.83728</ele>
        <time>2011-10-15T15:46:26Z</time>
      </trkpt>
      <trkpt lat="47.36361" lon="6.10239">
        <ele>218.83728</ele>
        <time>2011-10-15T15:46:31Z</time>
      </trkpt>
      <trkpt lat="47.36351" lon="6.10234">
        <ele>218.83728</ele>
        <time>2011-10-15T15:46:43Z</time>
      </trkpt>
      <trkpt lat="47.36347" lon="6.10236">
        <ele>218.356567</ele>
        <time>2011-10-15T15:46:45Z</time>
      </trkpt>
      <trkpt lat="47.36343" lon="6.10238">
        <ele>218.356567</ele>
        <time>2011-10-15T15:46:47Z</time>
      </trkpt>
      <trkpt lat="47.36337" lon="6.10237">
        <ele>218.356567</ele>
        <time>2011-10-15T15:46:52Z</time>
      </trkpt>
      <trkpt lat="47.36316" lon="6.10245">
        <ele>218.356567</ele>
        <time>2011-10-15T15:47:11Z</time>
      </trkpt>
      <trkpt lat="47.36305" lon="6.10249">
        <ele>219.317993</ele>
        <time>2011-10-15T15:47:31Z</time>
      </trkpt>
      <trkpt lat="47.363" lon="6.10246">
        <ele>219.798584</ele>
        <time>2011-10-15T15:47:46Z</time>
      </trkpt>
      <trkpt lat="47.36284" lon="6.10234">
        <ele>223.163208</ele>
        <time>2011-10-15T15:48:03Z</time>
      </trkpt>
      <trkpt lat="47.3627" lon="6.10222">
        <ele>226.047119</ele>
        <time>2011-10-15T15:48:17Z</time>
      </trkpt>
      <trkpt lat="47.36266" lon="6.10222">
        <ele>227.008545</ele>
        <time>2011-10-15T15:48:21Z</time>
      </trkpt>
      <trkpt lat="47.36244" lon="6.10207">
        <ele>229.892334</ele>
        <time>2011-10-15T15:48:41Z</time>
      </trkpt>
      <trkpt lat="47.36227" lon="6.10203">
        <ele>228.931152</ele>
        <time>2011-10-15T15:48:59Z</time>
      </trkpt>
      <trkpt lat="47.36216" lon="6.10195">
        <ele>227.008545</ele>
        <time>2011-10-15T15:49:17Z</time>
      </trkpt>
      <trkpt lat="47.36201" lon="6.10193">
        <ele>225.085938</ele>
        <time>2011-10-15T15:49:28Z</time>
      </trkpt>
      <trkpt lat="47.3619" lon="6.10196">
        <ele>221.721191</ele>
        <time>2011-10-15T15:49:40Z</time>
      </trkpt>
      <trkpt lat="47.36176" lon="6.10196">
        <ele>218.83728</ele>
        <time>2011-10-15T15:49:50Z</time>
      </trkpt>
      <trkpt lat="47.36156" lon="6.10201">
        <ele>218.83728</ele>
        <time>2011-10-15T15:50:10Z</time>
      </trkpt>
      <trkpt lat="47.36155" lon="6.10201">
        <ele>218.83728</ele>
        <time>2011-10-15T15:50:39Z</time>
      </trkpt>
      <trkpt lat="47.36147" lon="6.10199">
        <ele>218.83728</ele>
        <time>2011-10-15T15:50:52Z</time>
      </trkpt>
      <trkpt lat="47.36129" lon="6.10189">
        <ele>219.317993</ele>
        <time>2011-10-15T15:51:08Z</time>
      </trkpt>
      <trkpt lat="47.36116" lon="6.10177">
        <ele>220.279175</ele>
        <time>2011-10-15T15:51:22Z</time>
      </trkpt>
      <trkpt lat="47.36102" lon="6.10177">
        <ele>220.759888</ele>
        <time>2011-10-15T15:51:34Z</time>
      </trkpt>
      <trkpt lat="47.3608" lon="6.10179">
        <ele>220.759888</ele>
        <time>2011-10-15T15:51:55Z</time>
      </trkpt>
      <trkpt lat="47.36054" lon="6.10177">
        <ele>223.163208</ele>
        <time>2011-10-15T15:52:16Z</time>
      </trkpt>
      <trkpt lat="47.3604" lon="6.10172">
        <ele>223.643799</ele>
        <time>2011-10-15T15:52:30Z</time>
      </trkpt>
      <trkpt lat="47.36027" lon="6.10183">
        <ele>223.643799</ele>
        <time>2011-10-15T15:52:47Z</time>
      </trkpt>
      <trkpt lat="47.36011" lon="6.10202">
        <ele>223.163208</ele>
        <time>2011-10-15T15:53:06Z</time>
      </trkpt>
      <trkpt lat="47.36003" lon="6.10215">
        <ele>222.682495</ele>
        <time>2011-10-15T15:53:23Z</time>
      </trkpt>
      <trkpt lat="47.35989" lon="6.10229">
        <ele>222.201782</ele>
        <time>2011-10-15T15:53:41Z</time>
      </trkpt>
      <trkpt lat="47.35967" lon="6.10252">
        <ele>220.759888</ele>
        <time>2011-10-15T15:54:02Z</time>
      </trkpt>
      <trkpt lat="47.35969" lon="6.10272">
        <ele>219.798584</ele>
        <time>2011-10-15T15:54:13Z</time>
      </trkpt>
      <trkpt lat="47.35972" lon="6.10277">
        <ele>219.317993</ele>
        <time>2011-10-15T15:54:16Z</time>
      </trkpt>
      <trkpt lat="47.35973" lon="6.10284">
        <ele>219.317993</ele>
        <time>2011-10-15T15:54:19Z</time>
      </trkpt>
      <trkpt lat="47.35982" lon="6.10299">
        <ele>218.83728</ele>
        <time>2011-10-15T15:54:28Z</time>
      </trkpt>
      <trkpt lat="47.35986" lon="6.10318">
        <ele>217.395386</ele>
        <time>2011-10-15T15:54:42Z</time>
      </trkpt>
      <trkpt lat="47.35985" lon="6.10321">
        <ele>217.395386</ele>
        <time>2011-10-15T15:54:45Z</time>
      </trkpt>
      <trkpt lat="47.35975" lon="6.10332">
        <ele>217.395386</ele>
        <time>2011-10-15T15:54:59Z</time>
      </trkpt>
      <trkpt lat="47.3596" lon="6.10345">
        <ele>217.395386</ele>
        <time>2011-10-15T15:55:16Z</time>
      </trkpt>
      <trkpt lat="47.3595" lon="6.1035">
        <ele>217.395386</ele>
        <time>2011-10-15T15:55:25Z</time>
      </trkpt>
      <trkpt lat="47.35943" lon="6.10353">
        <ele>218.356567</ele>
        <time>2011-10-15T15:55:30Z</time>
      </trkpt>
      <trkpt lat="47.35934" lon="6.10353">
        <ele>218.83728</ele>
        <time>2011-10-15T15:55:38Z</time>
      </trkpt>
      <trkpt lat="47.35925" lon="6.10358">
        <ele>219.317993</ele>
        <time>2011-10-15T15:55:46Z</time>
      </trkpt>
      <trkpt lat="47.35919" lon="6.1036">
        <ele>219.317993</ele>
        <time>2011-10-15T15:55:51Z</time>
      </trkpt>
      <trkpt lat="47.35913" lon="6.1036">
        <ele>219.317993</ele>
        <time>2011-10-15T15:55:58Z</time>
      </trkpt>
      <trkpt lat="47.35911" lon="6.1036">
        <ele>219.317993</ele>
        <time>2011-10-15T15:56:00Z</time>
      </trkpt>
      <trkpt lat="47.35894" lon="6.10362">
        <ele>218.356567</ele>
        <time>2011-10-15T15:56:14Z</time>
      </trkpt>
      <trkpt lat="47.35881" lon="6.10368">
        <ele>219.317993</ele>
        <time>2011-10-15T15:56:29Z</time>
      </trkpt>
      <trkpt lat="47.35868" lon="6.10373">
        <ele>218.83728</ele>
        <time>2011-10-15T15:56:46Z</time>
      </trkpt>
      <trkpt lat="47.35848" lon="6.10382">
        <ele>218.83728</ele>
        <time>2011-10-15T15:57:04Z</time>
      </trkpt>
      <trkpt lat="47.35843" lon="6.10386">
        <ele>219.317993</ele>
        <time>2011-10-15T15:57:14Z</time>
      </trkpt>
      <trkpt lat="47.35833" lon="6.10392">
        <ele>219.798584</ele>
        <time>2011-10-15T15:57:57Z</time>
      </trkpt>
      <trkpt lat="47.35824" lon="6.10397">
        <ele>221.240601</ele>
        <time>2011-10-15T15:58:57Z</time>
      </trkpt>
      <trkpt lat="47.35806" lon="6.10399">
        <ele>223.643799</ele>
        <time>2011-10-15T15:59:14Z</time>
      </trkpt>
      <trkpt lat="47.35804" lon="6.104">
        <ele>224.124512</ele>
        <time>2011-10-15T15:59:16Z</time>
      </trkpt>
      <trkpt lat="47.35789" lon="6.10411">
        <ele>226.527832</ele>
        <time>2011-10-15T15:59:31Z</time>
      </trkpt>
      <trkpt lat="47.35769" lon="6.10429">
        <ele>227.969727</ele>
        <time>2011-10-15T15:59:48Z</time>
      </trkpt>
      <trkpt lat="47.35753" lon="6.10442">
        <ele>227.969727</ele>
        <time>2011-10-15T16:00:02Z</time>
      </trkpt>
      <trkpt lat="47.35743" lon="6.10443">
        <ele>227.969727</ele>
        <time>2011-10-15T16:00:15Z</time>
      </trkpt>
      <trkpt lat="47.35742" lon="6.10438">
        <ele>227.969727</ele>
        <time>2011-10-15T16:00:30Z</time>
      </trkpt>
      <trkpt lat="47.35735" lon="6.10426">
        <ele>227.969727</ele>
        <time>2011-10-15T16:00:49Z</time>
      </trkpt>
      <trkpt lat="47.35734" lon="6.10425">
        <ele>227.969727</ele>
        <time>2011-10-15T16:00:51Z</time>
      </trkpt>
      <trkpt lat="47.35725" lon="6.10396">
        <ele>228.450439</ele>
        <time>2011-10-15T16:01:10Z</time>
      </trkpt>
      <trkpt lat="47.35719" lon="6.10381">
        <ele>228.450439</ele>
        <time>2011-10-15T16:01:27Z</time>
      </trkpt>
      <trkpt lat="47.35708" lon="6.1035">
        <ele>228.931152</ele>
        <time>2011-10-15T16:01:48Z</time>
      </trkpt>
      <trkpt lat="47.35702" lon="6.10329">
        <ele>229.411743</ele>
        <time>2011-10-15T16:02:06Z</time>
      </trkpt>
      <trkpt lat="47.3569" lon="6.10292">
        <ele>230.373047</ele>
        <time>2011-10-15T16:02:34Z</time>
      </trkpt>
      <trkpt lat="47.35676" lon="6.10256">
        <ele>231.814941</ele>
        <time>2011-10-15T16:02:58Z</time>
      </trkpt>
      <trkpt lat="47.35671" lon="6.10221">
        <ele>233.25708</ele>
        <time>2011-10-15T16:03:20Z</time>
      </trkpt>
      <trkpt lat="47.35671" lon="6.10219">
        <ele>233.25708</ele>
        <time>2011-10-15T16:03:40Z</time>
      </trkpt>
      <trkpt lat="47.35663" lon="6.10228">
        <ele>232.776489</ele>
        <time>2011-10-15T16:04:01Z</time>
      </trkpt>
      <trkpt lat="47.35653" lon="6.10243">
        <ele>232.295776</ele>
        <time>2011-10-15T16:04:20Z</time>
      </trkpt>
      <trkpt lat="47.35651" lon="6.10244">
        <ele>231.814941</ele>
        <time>2011-10-15T16:04:35Z</time>
      </trkpt>
      <trkpt lat="47.35645" lon="6.10251">
        <ele>232.295776</ele>
        <time>2011-10-15T16:04:44Z</time>
      </trkpt>
      <trkpt lat="47.35632" lon="6.10261">
        <ele>231.334351</ele>
        <time>2011-10-15T16:04:55Z</time>
      </trkpt>
      <trkpt lat="47.35596" lon="6.10275">
        <ele>231.334351</ele>
        <time>2011-10-15T16:05:18Z</time>
      </trkpt>
      <trkpt lat="47.35566" lon="6.10283">
        <ele>231.814941</ele>
        <time>2011-10-15T16:05:42Z</time>
      </trkpt>
      <trkpt lat="47.35545" lon="6.10305">
        <ele>232.295776</ele>
        <time>2011-10-15T16:06:00Z</time>
      </trkpt>
      <trkpt lat="47.35543" lon="6.1031">
        <ele>232.776489</ele>
        <time>2011-10-15T16:06:04Z</time>
      </trkpt>
      <trkpt lat="47.35543" lon="6.10319">
        <ele>232.776489</ele>
        <time>2011-10-15T16:06:08Z</time>
      </trkpt>
      <trkpt lat="47.3554" lon="6.10324">
        <ele>232.776489</ele>
        <time>2011-10-15T16:06:14Z</time>
      </trkpt>
      <trkpt lat="47.35532" lon="6.10326">
        <ele>233.25708</ele>
        <time>2011-10-15T16:06:18Z</time>
      </trkpt>
      <trkpt lat="47.3553" lon="6.10328">
        <ele>233.25708</ele>
        <time>2011-10-15T16:06:20Z</time>
      </trkpt>
      <trkpt lat="47.35528" lon="6.10329">
        <ele>233.25708</ele>
        <time>2011-10-15T16:06:22Z</time>
      </trkpt>
      <trkpt lat="47.35513" lon="6.10347">
        <ele>234.218384</ele>
        <time>2011-10-15T16:06:38Z</time>
      </trkpt>
      <trkpt lat="47.35499" lon="6.10356">
        <ele>234.699097</ele>
        <time>2011-10-15T16:06:54Z</time>
      </trkpt>
      <trkpt lat="47.35496" lon="6.10348">
        <ele>234.218384</ele>
        <time>2011-10-15T16:07:09Z</time>
      </trkpt>
      <trkpt lat="47.35495" lon="6.10351">
        <ele>233.737671</ele>
        <time>2011-10-15T16:07:30Z</time>
      </trkpt>
      <trkpt lat="47.35482" lon="6.10369">
        <ele>233.737671</ele>
        <time>2011-10-15T16:07:45Z</time>
      </trkpt>
      <trkpt lat="47.3548" lon="6.10371">
        <ele>233.25708</ele>
        <time>2011-10-15T16:08:03Z</time>
      </trkpt>
      <trkpt lat="47.35475" lon="6.10371">
        <ele>233.25708</ele>
        <time>2011-10-15T16:08:07Z</time>
      </trkpt>
      <trkpt lat="47.35468" lon="6.10359">
        <ele>232.776489</ele>
        <time>2011-10-15T16:08:22Z</time>
      </trkpt>
      <trkpt lat="47.35464" lon="6.10351">
        <ele>233.25708</ele>
        <time>2011-10-15T16:08:27Z</time>
      </trkpt>
      <trkpt lat="47.35448" lon="6.10325">
        <ele>233.25708</ele>
        <time>2011-10-15T16:08:46Z</time>
      </trkpt>
      <trkpt lat="47.35424" lon="6.10282">
        <ele>233.737671</ele>
        <time>2011-10-15T16:09:09Z</time>
      </trkpt>
      <trkpt lat="47.35419" lon="6.10272">
        <ele>233.737671</ele>
        <time>2011-10-15T16:09:16Z</time>
      </trkpt>
      <trkpt lat="47.35414" lon="6.10264">
        <ele>234.218384</ele>
        <time>2011-10-15T16:09:22Z</time>
      </trkpt>
      <trkpt lat="47.35404" lon="6.10238">
        <ele>234.218384</ele>
        <time>2011-10-15T16:09:37Z</time>
      </trkpt>
      <trkpt lat="47.35404" lon="6.10237">
        <ele>234.218384</ele>
        <time>2011-10-15T16:09:38Z</time>
      </trkpt>
      <trkpt lat="47.35389" lon="6.10215">
        <ele>234.699097</ele>
        <time>2011-10-15T16:09:53Z</time>
      </trkpt>
      <trkpt lat="47.3538" lon="6.10197">
        <ele>235.179688</ele>
        <time>2011-10-15T16:10:04Z</time>
      </trkpt>
      <trkpt lat="47.35371" lon="6.10172">
        <ele>235.179688</ele>
        <time>2011-10-15T16:10:19Z</time>
      </trkpt>
      <trkpt lat="47.35368" lon="6.10167">
        <ele>235.660278</ele>
        <time>2011-10-15T16:10:22Z</time>
      </trkpt>
      <trkpt lat="47.35367" lon="6.10164">
        <ele>235.660278</ele>
        <time>2011-10-15T16:10:24Z</time>
      </trkpt>
      <trkpt lat="47.35353" lon="6.10141">
        <ele>236.140991</ele>
        <time>2011-10-15T16:10:39Z</time>
      </trkpt>
      <trkpt lat="47.35351" lon="6.10133">
        <ele>236.140991</ele>
        <time>2011-10-15T16:10:43Z</time>
      </trkpt>
      <trkpt lat="47.35337" lon="6.10114">
        <ele>236.140991</ele>
        <time>2011-10-15T16:10:59Z</time>
      </trkpt>
      <trkpt lat="47.35332" lon="6.10105">
        <ele>236.621704</ele>
        <time>2011-10-15T16:11:05Z</time>
      </trkpt>
      <trkpt lat="47.35319" lon="6.10085">
        <ele>237.102295</ele>
        <time>2011-10-15T16:11:19Z</time>
      </trkpt>
      <trkpt lat="47.35308" lon="6.10062">
        <ele>237.582886</ele>
        <time>2011-10-15T16:11:32Z</time>
      </trkpt>
      <trkpt lat="47.35302" lon="6.10043">
        <ele>237.582886</ele>
        <time>2011-10-15T16:11:46Z</time>
      </trkpt>
      <trkpt lat="47.35291" lon="6.1002">
        <ele>238.063599</ele>
        <time>2011-10-15T16:12:00Z</time>
      </trkpt>
      <trkpt lat="47.35287" lon="6.10014">
        <ele>238.063599</ele>
        <time>2011-10-15T16:12:04Z</time>
      </trkpt>
      <trkpt lat="47.35285" lon="6.10008">
        <ele>238.544312</ele>
        <time>2011-10-15T16:12:07Z</time>
      </trkpt>
      <trkpt lat="47.35273" lon="6.09986">
        <ele>239.024902</ele>
        <time>2011-10-15T16:12:23Z</time>
      </trkpt>
      <trkpt lat="47.35268" lon="6.09972">
        <ele>238.544312</ele>
        <time>2011-10-15T16:12:30Z</time>
      </trkpt>
      <trkpt lat="47.35253" lon="6.09948">
        <ele>239.024902</ele>
        <time>2011-10-15T16:12:46Z</time>
      </trkpt>
      <trkpt lat="47.3524" lon="6.09916">
        <ele>239.505493</ele>
        <time>2011-10-15T16:13:05Z</time>
      </trkpt>
      <trkpt lat="47.35236" lon="6.09905">
        <ele>239.986206</ele>
        <time>2011-10-15T16:13:12Z</time>
      </trkpt>
      <trkpt lat="47.35232" lon="6.099">
        <ele>239.505493</ele>
        <time>2011-10-15T16:13:28Z</time>
      </trkpt>
      <trkpt lat="47.35232" lon="6.099">
        <ele>239.986206</ele>
        <time>2011-10-15T16:13:29Z</time>
      </trkpt>
      <trkpt lat="47.35241" lon="6.09914">
        <ele>239.986206</ele>
        <time>2011-10-15T16:13:39Z</time>
      </trkpt>
      <trkpt lat="47.35242" lon="6.09916">
        <ele>239.505493</ele>
        <time>2011-10-15T16:13:41Z</time>
      </trkpt>
      <trkpt lat="47.35244" lon="6.09929">
        <ele>239.505493</ele>
        <time>2011-10-15T16:13:49Z</time>
      </trkpt>
      <trkpt lat="47.35251" lon="6.09949">
        <ele>239.505493</ele>
        <time>2011-10-15T16:14:06Z</time>
      </trkpt>
      <trkpt lat="47.35249" lon="6.09948">
        <ele>239.986206</ele>
        <time>2011-10-15T16:14:40Z</time>
      </trkpt>
      <trkpt lat="47.35238" lon="6.09918">
        <ele>239.505493</ele>
        <time>2011-10-15T16:14:56Z</time>
      </trkpt>
      <trkpt lat="47.3523" lon="6.09903">
        <ele>239.505493</ele>
        <time>2011-10-15T16:15:05Z</time>
      </trkpt>
      <trkpt lat="47.35216" lon="6.09882">
        <ele>239.986206</ele>
        <time>2011-10-15T16:15:20Z</time>
      </trkpt>
      <trkpt lat="47.35205" lon="6.09859">
        <ele>239.986206</ele>
        <time>2011-10-15T16:15:35Z</time>
      </trkpt>
      <trkpt lat="47.35194" lon="6.09838">
        <ele>240.467041</ele>
        <time>2011-10-15T16:15:51Z</time>
      </trkpt>
      <trkpt lat="47.35191" lon="6.09837">
        <ele>240.467041</ele>
        <time>2011-10-15T16:16:12Z</time>
      </trkpt>
      <trkpt lat="47.35179" lon="6.09815">
        <ele>240.947632</ele>
        <time>2011-10-15T16:16:37Z</time>
      </trkpt>
      <trkpt lat="47.35164" lon="6.0979">
        <ele>241.428223</ele>
        <time>2011-10-15T16:16:53Z</time>
      </trkpt>
      <trkpt lat="47.35162" lon="6.09783">
        <ele>241.428223</ele>
        <time>2011-10-15T16:16:56Z</time>
      </trkpt>
      <trkpt lat="47.35158" lon="6.09779">
        <ele>241.428223</ele>
        <time>2011-10-15T16:16:59Z</time>
      </trkpt>
      <trkpt lat="47.35155" lon="6.09773">
        <ele>241.428223</ele>
        <time>2011-10-15T16:17:03Z</time>
      </trkpt>
      <trkpt lat="47.35154" lon="6.09768">
        <ele>241.428223</ele>
        <time>2011-10-15T16:17:06Z</time>
      </trkpt>
      <trkpt lat="47.35152" lon="6.09764">
        <ele>241.908936</ele>
        <time>2011-10-15T16:17:08Z</time>
      </trkpt>
      <trkpt lat="47.35136" lon="6.09738">
        <ele>241.908936</ele>
        <time>2011-10-15T16:17:23Z</time>
      </trkpt>
      <trkpt lat="47.35121" lon="6.09714">
        <ele>241.908936</ele>
        <time>2011-10-15T16:17:39Z</time>
      </trkpt>
      <trkpt lat="47.35111" lon="6.09703">
        <ele>241.908936</ele>
        <time>2011-10-15T16:17:50Z</time>
      </trkpt>
      <trkpt lat="47.35104" lon="6.09691">
        <ele>241.908936</ele>
        <time>2011-10-15T16:17:57Z</time>
      </trkpt>
      <trkpt lat="47.35098" lon="6.09682">
        <ele>241.908936</ele>
        <time>2011-10-15T16:18:03Z</time>
      </trkpt>
      <trkpt lat="47.35097" lon="6.09674">
        <ele>241.908936</ele>
        <time>2011-10-15T16:18:07Z</time>
      </trkpt>
      <trkpt lat="47.3509" lon="6.09682">
        <ele>245.273438</ele>
        <time>2011-10-15T16:18:21Z</time>
      </trkpt>
      <trkpt lat="47.35093" lon="6.09688">
        <ele>247.196045</ele>
        <time>2011-10-15T16:18:25Z</time>
      </trkpt>
      <trkpt lat="47.35099" lon="6.09691">
        <ele>247.196045</ele>
        <time>2011-10-15T16:18:38Z</time>
      </trkpt>
      <trkpt lat="47.35102" lon="6.09682">
        <ele>247.196045</ele>
        <time>2011-10-15T16:19:01Z</time>
      </trkpt>
      <trkpt lat="47.35109" lon="6.09672">
        <ele>246.715454</ele>
        <time>2011-10-15T16:19:25Z</time>
      </trkpt>
      <trkpt lat="47.35113" lon="6.09669">
        <ele>246.715454</ele>
        <time>2011-10-15T16:19:52Z</time>
      </trkpt>
      <trkpt lat="47.35136" lon="6.09638">
        <ele>245.273438</ele>
        <time>2011-10-15T16:20:15Z</time>
      </trkpt>
      <trkpt lat="47.35157" lon="6.09617">
        <ele>245.75415</ele>
        <time>2011-10-15T16:20:33Z</time>
      </trkpt>
      <trkpt lat="47.35185" lon="6.09604">
        <ele>246.234863</ele>
        <time>2011-10-15T16:20:58Z</time>
      </trkpt>
      <trkpt lat="47.35221" lon="6.09622">
        <ele>246.715454</ele>
        <time>2011-10-15T16:21:24Z</time>
      </trkpt>
      <trkpt lat="47.35254" lon="6.09648">
        <ele>246.715454</ele>
        <time>2011-10-15T16:21:49Z</time>
      </trkpt>
      <trkpt lat="47.35255" lon="6.09649">
        <ele>246.715454</ele>
        <time>2011-10-15T16:22:06Z</time>
      </trkpt>
      <trkpt lat="47.3528" lon="6.09668">
        <ele>246.234863</ele>
        <time>2011-10-15T16:22:32Z</time>
      </trkpt>
      <trkpt lat="47.35283" lon="6.0967">
        <ele>246.234863</ele>
        <time>2011-10-15T16:22:36Z</time>
      </trkpt>
      <trkpt lat="47.35303" lon="6.09697">
        <ele>246.234863</ele>
        <time>2011-10-15T16:22:58Z</time>
      </trkpt>
      <trkpt lat="47.35305" lon="6.09698">
        <ele>246.234863</ele>
        <time>2011-10-15T16:22:59Z</time>
      </trkpt>
      <trkpt lat="47.35322" lon="6.09728">
        <ele>246.234863</ele>
        <time>2011-10-15T16:23:19Z</time>
      </trkpt>
      <trkpt lat="47.35337" lon="6.09758">
        <ele>246.715454</ele>
        <time>2011-10-15T16:23:39Z</time>
      </trkpt>
      <trkpt lat="47.35355" lon="6.09787">
        <ele>247.196045</ele>
        <time>2011-10-15T16:23:59Z</time>
      </trkpt>
      <trkpt lat="47.35374" lon="6.09795">
        <ele>247.676758</ele>
        <time>2011-10-15T16:24:19Z</time>
      </trkpt>
      <trkpt lat="47.35375" lon="6.09794">
        <ele>247.676758</ele>
        <time>2011-10-15T16:24:26Z</time>
      </trkpt>
      <trkpt lat="47.35382" lon="6.09778">
        <ele>248.157593</ele>
        <time>2011-10-15T16:24:41Z</time>
      </trkpt>
      <trkpt lat="47.35399" lon="6.09738">
        <ele>248.638184</ele>
        <time>2011-10-15T16:25:04Z</time>
      </trkpt>
      <trkpt lat="47.35412" lon="6.09699">
        <ele>248.157593</ele>
        <time>2011-10-15T16:25:25Z</time>
      </trkpt>
      <trkpt lat="47.35425" lon="6.0966">
        <ele>247.676758</ele>
        <time>2011-10-15T16:25:47Z</time>
      </trkpt>
      <trkpt lat="47.35438" lon="6.09613">
        <ele>246.234863</ele>
        <time>2011-10-15T16:26:12Z</time>
      </trkpt>
      <trkpt lat="47.35456" lon="6.09565">
        <ele>244.792847</ele>
        <time>2011-10-15T16:26:40Z</time>
      </trkpt>
      <trkpt lat="47.35471" lon="6.09521">
        <ele>243.35083</ele>
        <time>2011-10-15T16:27:06Z</time>
      </trkpt>
      <trkpt lat="47.35486" lon="6.09479">
        <ele>241.908936</ele>
        <time>2011-10-15T16:27:30Z</time>
      </trkpt>
      <trkpt lat="47.35502" lon="6.09437">
        <ele>239.986206</ele>
        <time>2011-10-15T16:27:53Z</time>
      </trkpt>
      <trkpt lat="47.35514" lon="6.094">
        <ele>239.505493</ele>
        <time>2011-10-15T16:28:15Z</time>
      </trkpt>
      <trkpt lat="47.35517" lon="6.09386">
        <ele>239.505493</ele>
        <time>2011-10-15T16:28:33Z</time>
      </trkpt>
      <trkpt lat="47.35525" lon="6.09365">
        <ele>239.024902</ele>
        <time>2011-10-15T16:28:51Z</time>
      </trkpt>
      <trkpt lat="47.35543" lon="6.09318">
        <ele>239.024902</ele>
        <time>2011-10-15T16:29:18Z</time>
      </trkpt>
      <trkpt lat="47.35556" lon="6.09274">
        <ele>238.063599</ele>
        <time>2011-10-15T16:29:42Z</time>
      </trkpt>
      <trkpt lat="47.35558" lon="6.09238">
        <ele>238.063599</ele>
        <time>2011-10-15T16:30:00Z</time>
      </trkpt>
      <trkpt lat="47.35556" lon="6.09212">
        <ele>238.063599</ele>
        <time>2011-10-15T16:30:17Z</time>
      </trkpt>
      <trkpt lat="47.35555" lon="6.09177">
        <ele>238.063599</ele>
        <time>2011-10-15T16:30:36Z</time>
      </trkpt>
      <trkpt lat="47.35555" lon="6.09123">
        <ele>237.102295</ele>
        <time>2011-10-15T16:31:03Z</time>
      </trkpt>
      <trkpt lat="47.35561" lon="6.09077">
        <ele>235.660278</ele>
        <time>2011-10-15T16:31:27Z</time>
      </trkpt>
      <trkpt lat="47.35566" lon="6.09046">
        <ele>235.179688</ele>
        <time>2011-10-15T16:31:44Z</time>
      </trkpt>
      <trkpt lat="47.35568" lon="6.09007">
        <ele>234.218384</ele>
        <time>2011-10-15T16:32:03Z</time>
      </trkpt>
      <trkpt lat="47.35569" lon="6.08975">
        <ele>233.737671</ele>
        <time>2011-10-15T16:32:19Z</time>
      </trkpt>
      <trkpt lat="47.35571" lon="6.08937">
        <ele>233.25708</ele>
        <time>2011-10-15T16:32:38Z</time>
      </trkpt>
      <trkpt lat="47.35569" lon="6.08896">
        <ele>232.295776</ele>
        <time>2011-10-15T16:32:59Z</time>
      </trkpt>
      <trkpt lat="47.35565" lon="6.08856">
        <ele>230.85376</ele>
        <time>2011-10-15T16:33:21Z</time>
      </trkpt>
      <trkpt lat="47.35574" lon="6.0882">
        <ele>229.411743</ele>
        <time>2011-10-15T16:33:40Z</time>
      </trkpt>
      <trkpt lat="47.35596" lon="6.08778">
        <ele>227.489136</ele>
        <time>2011-10-15T16:34:08Z</time>
      </trkpt>
      <trkpt lat="47.3561" lon="6.08744">
        <ele>227.008545</ele>
        <time>2011-10-15T16:34:30Z</time>
      </trkpt>
      <trkpt lat="47.35617" lon="6.08708">
        <ele>226.527832</ele>
        <time>2011-10-15T16:34:49Z</time>
      </trkpt>
      <trkpt lat="47.35618" lon="6.08705">
        <ele>226.527832</ele>
        <time>2011-10-15T16:34:51Z</time>
      </trkpt>
      <trkpt lat="47.3562" lon="6.0866">
        <ele>226.527832</ele>
        <time>2011-10-15T16:35:15Z</time>
      </trkpt>
      <trkpt lat="47.35621" lon="6.08611">
        <ele>225.566528</ele>
        <time>2011-10-15T16:35:42Z</time>
      </trkpt>
      <trkpt lat="47.35622" lon="6.08583">
        <ele>225.566528</ele>
        <time>2011-10-15T16:35:58Z</time>
      </trkpt>
      <trkpt lat="47.35626" lon="6.08543">
        <ele>225.085938</ele>
        <time>2011-10-15T16:36:20Z</time>
      </trkpt>
      <trkpt lat="47.35626" lon="6.08499">
        <ele>224.124512</ele>
        <time>2011-10-15T16:36:42Z</time>
      </trkpt>
      <trkpt lat="47.35634" lon="6.08458">
        <ele>222.682495</ele>
        <time>2011-10-15T16:37:06Z</time>
      </trkpt>
      <trkpt lat="47.3564" lon="6.08428">
        <ele>221.240601</ele>
        <time>2011-10-15T16:37:23Z</time>
      </trkpt>
      <trkpt lat="47.3565" lon="6.08395">
        <ele>219.317993</ele>
        <time>2011-10-15T16:37:43Z</time>
      </trkpt>
      <trkpt lat="47.35658" lon="6.08384">
        <ele>218.83728</ele>
        <time>2011-10-15T16:37:52Z</time>
      </trkpt>
      <trkpt lat="47.35659" lon="6.08375">
        <ele>218.83728</ele>
        <time>2011-10-15T16:37:56Z</time>
      </trkpt>
      <trkpt lat="47.35667" lon="6.08341">
        <ele>217.395386</ele>
        <time>2011-10-15T16:38:11Z</time>
      </trkpt>
      <trkpt lat="47.35672" lon="6.08329">
        <ele>216.914673</ele>
        <time>2011-10-15T16:38:19Z</time>
      </trkpt>
      <trkpt lat="47.35673" lon="6.08323">
        <ele>216.43396</ele>
        <time>2011-10-15T16:38:22Z</time>
      </trkpt>
      <trkpt lat="47.35689" lon="6.08297">
        <ele>216.43396</ele>
        <time>2011-10-15T16:38:42Z</time>
      </trkpt>
      <trkpt lat="47.35709" lon="6.08288">
        <ele>215.953247</ele>
        <time>2011-10-15T16:39:01Z</time>
      </trkpt>
      <trkpt lat="47.35714" lon="6.08287">
        <ele>215.472656</ele>
        <time>2011-10-15T16:39:05Z</time>
      </trkpt>
      <trkpt lat="47.35725" lon="6.08283">
        <ele>215.472656</ele>
        <time>2011-10-15T16:39:22Z</time>
      </trkpt>
      <trkpt lat="47.35721" lon="6.08281">
        <ele>214.991943</ele>
        <time>2011-10-15T16:39:45Z</time>
      </trkpt>
      <trkpt lat="47.35716" lon="6.08276">
        <ele>214.991943</ele>
        <time>2011-10-15T16:40:08Z</time>
      </trkpt>
      <trkpt lat="47.35717" lon="6.0826">
        <ele>214.51123</ele>
        <time>2011-10-15T16:40:25Z</time>
      </trkpt>
      <trkpt lat="47.35725" lon="6.08225">
        <ele>215.953247</ele>
        <time>2011-10-15T16:40:45Z</time>
      </trkpt>
      <trkpt lat="47.35725" lon="6.08221">
        <ele>215.953247</ele>
        <time>2011-10-15T16:41:03Z</time>
      </trkpt>
      <trkpt lat="47.35723" lon="6.08217">
        <ele>215.953247</ele>
        <time>2011-10-15T16:41:34Z</time>
      </trkpt>
      <trkpt lat="47.35727" lon="6.08204">
        <ele>215.472656</ele>
        <time>2011-10-15T16:42:33Z</time>
      </trkpt>
      <trkpt lat="47.3573" lon="6.0819">
        <ele>214.991943</ele>
        <time>2011-10-15T16:43:21Z</time>
      </trkpt>
      <trkpt lat="47.35731" lon="6.08185">
        <ele>214.991943</ele>
        <time>2011-10-15T16:43:55Z</time>
      </trkpt>
      <trkpt lat="47.35733" lon="6.08186">
        <ele>214.991943</ele>
        <time>2011-10-15T16:45:07Z</time>
      </trkpt>
      <trkpt lat="47.35732" lon="6.08186">
        <ele>214.991943</ele>
        <time>2011-10-15T16:45:45Z</time>
      </trkpt>
      <trkpt lat="47.35729" lon="6.08201">
        <ele>215.472656</ele>
        <time>2011-10-15T16:46:04Z</time>
      </trkpt>
      <trkpt lat="47.35725" lon="6.08216">
        <ele>214.51123</ele>
        <time>2011-10-15T16:46:20Z</time>
      </trkpt>
      <trkpt lat="47.35725" lon="6.08231">
        <ele>214.03064</ele>
        <time>2011-10-15T16:46:35Z</time>
      </trkpt>
      <trkpt lat="47.35726" lon="6.08239">
        <ele>214.03064</ele>
        <time>2011-10-15T16:46:40Z</time>
      </trkpt>
      <trkpt lat="47.35742" lon="6.08255">
        <ele>214.03064</ele>
        <time>2011-10-15T16:46:59Z</time>
      </trkpt>
      <trkpt lat="47.3575" lon="6.08263">
        <ele>214.51123</ele>
        <time>2011-10-15T16:47:09Z</time>
      </trkpt>
      <trkpt lat="47.35776" lon="6.08273">
        <ele>214.51123</ele>
        <time>2011-10-15T16:47:27Z</time>
      </trkpt>
      <trkpt lat="47.35796" lon="6.08283">
        <ele>214.991943</ele>
        <time>2011-10-15T16:47:40Z</time>
      </trkpt>
      <trkpt lat="47.35802" lon="6.08289">
        <ele>214.991943</ele>
        <time>2011-10-15T16:47:45Z</time>
      </trkpt>
      <trkpt lat="47.35804" lon="6.08289">
        <ele>214.991943</ele>
        <time>2011-10-15T16:47:47Z</time>
      </trkpt>
      <trkpt lat="47.35823" lon="6.08298">
        <ele>214.991943</ele>
        <time>2011-10-15T16:48:01Z</time>
      </trkpt>
      <trkpt lat="47.35829" lon="6.08299">
        <ele>214.991943</ele>
        <time>2011-10-15T16:48:12Z</time>
      </trkpt>
      <trkpt lat="47.3584" lon="6.08299">
        <ele>214.991943</ele>
        <time>2011-10-15T16:48:23Z</time>
      </trkpt>
      <trkpt lat="47.35871" lon="6.08312">
        <ele>214.991943</ele>
        <time>2011-10-15T16:48:40Z</time>
      </trkpt>
      <trkpt lat="47.35878" lon="6.08318">
        <ele>214.991943</ele>
        <time>2011-10-15T16:48:52Z</time>
      </trkpt>
      <trkpt lat="47.35895" lon="6.0833">
        <ele>214.991943</ele>
        <time>2011-10-15T16:49:04Z</time>
      </trkpt>
      <trkpt lat="47.3591" lon="6.08337">
        <ele>215.472656</ele>
        <time>2011-10-15T16:49:18Z</time>
      </trkpt>
      <trkpt lat="47.35928" lon="6.08346">
        <ele>215.953247</ele>
        <time>2011-10-15T16:49:34Z</time>
      </trkpt>
      <trkpt lat="47.35948" lon="6.08363">
        <ele>215.953247</ele>
        <time>2011-10-15T16:49:52Z</time>
      </trkpt>
      <trkpt lat="47.35951" lon="6.08366">
        <ele>215.953247</ele>
        <time>2011-10-15T16:49:55Z</time>
      </trkpt>
      <trkpt lat="47.35966" lon="6.08374">
        <ele>216.43396</ele>
        <time>2011-10-15T16:50:08Z</time>
      </trkpt>
      <trkpt lat="47.35967" lon="6.08379">
        <ele>216.43396</ele>
        <time>2011-10-15T16:50:13Z</time>
      </trkpt>
      <trkpt lat="47.35977" lon="6.0839">
        <ele>216.914673</ele>
        <time>2011-10-15T16:50:24Z</time>
      </trkpt>
      <trkpt lat="47.35988" lon="6.08399">
        <ele>216.914673</ele>
        <time>2011-10-15T16:50:36Z</time>
      </trkpt>
      <trkpt lat="47.35989" lon="6.08401">
        <ele>216.914673</ele>
        <time>2011-10-15T16:50:38Z</time>
      </trkpt>
      <trkpt lat="47.36003" lon="6.08411">
        <ele>216.914673</ele>
        <time>2011-10-15T16:50:52Z</time>
      </trkpt>
      <trkpt lat="47.36012" lon="6.08422">
        <ele>217.395386</ele>
        <time>2011-10-15T16:51:03Z</time>
      </trkpt>
      <trkpt lat="47.3603" lon="6.08428">
        <ele>217.875977</ele>
        <time>2011-10-15T16:51:18Z</time>
      </trkpt>
      <trkpt lat="47.36044" lon="6.08439">
        <ele>217.875977</ele>
        <time>2011-10-15T16:51:34Z</time>
      </trkpt>
      <trkpt lat="47.36064" lon="6.08443">
        <ele>218.356567</ele>
        <time>2011-10-15T16:51:49Z</time>
      </trkpt>
      <trkpt lat="47.36078" lon="6.08439">
        <ele>217.875977</ele>
        <time>2011-10-15T16:52:05Z</time>
      </trkpt>
      <trkpt lat="47.36088" lon="6.08437">
        <ele>218.356567</ele>
        <time>2011-10-15T16:52:20Z</time>
      </trkpt>
      <trkpt lat="47.361" lon="6.0843">
        <ele>218.356567</ele>
        <time>2011-10-15T16:52:40Z</time>
      </trkpt>
      <trkpt lat="47.36113" lon="6.08424">
        <ele>218.83728</ele>
        <time>2011-10-15T16:53:19Z</time>
      </trkpt>
      <trkpt lat="47.36115" lon="6.08421">
        <ele>218.356567</ele>
        <time>2011-10-15T16:53:43Z</time>
      </trkpt>
      <trkpt lat="47.36129" lon="6.08425">
        <ele>218.356567</ele>
        <time>2011-10-15T16:53:59Z</time>
      </trkpt>
      <trkpt lat="47.36143" lon="6.08427">
        <ele>218.356567</ele>
        <time>2011-10-15T16:54:12Z</time>
      </trkpt>
      <trkpt lat="47.3616" lon="6.08427">
        <ele>218.356567</ele>
        <time>2011-10-15T16:54:27Z</time>
      </trkpt>
      <trkpt lat="47.36176" lon="6.08426">
        <ele>218.83728</ele>
        <time>2011-10-15T16:54:40Z</time>
      </trkpt>
      <trkpt lat="47.36194" lon="6.0843">
        <ele>218.83728</ele>
        <time>2011-10-15T16:54:57Z</time>
      </trkpt>
      <trkpt lat="47.36214" lon="6.08432">
        <ele>218.83728</ele>
        <time>2011-10-15T16:55:12Z</time>
      </trkpt>
      <trkpt lat="47.36232" lon="6.08432">
        <ele>218.83728</ele>
        <time>2011-10-15T16:55:27Z</time>
      </trkpt>
      <trkpt lat="47.36249" lon="6.08434">
        <ele>218.83728</ele>
        <time>2011-10-15T16:55:41Z</time>
      </trkpt>
      <trkpt lat="47.36256" lon="6.08433">
        <ele>218.83728</ele>
        <time>2011-10-15T16:55:46Z</time>
      </trkpt>
      <trkpt lat="47.36274" lon="6.08428">
        <ele>218.83728</ele>
        <time>2011-10-15T16:56:01Z</time>
      </trkpt>
      <trkpt lat="47.36289" lon="6.08427">
        <ele>218.83728</ele>
        <time>2011-10-15T16:56:14Z</time>
      </trkpt>
      <trkpt lat="47.36299" lon="6.08425">
        <ele>219.317993</ele>
        <time>2011-10-15T16:56:22Z</time>
      </trkpt>
      <trkpt lat="47.36314" lon="6.08426">
        <ele>219.317993</ele>
        <time>2011-10-15T16:56:34Z</time>
      </trkpt>
      <trkpt lat="47.3632" lon="6.0843">
        <ele>219.317993</ele>
        <time>2011-10-15T16:56:49Z</time>
      </trkpt>
      <trkpt lat="47.36331" lon="6.08424">
        <ele>219.317993</ele>
        <time>2011-10-15T16:57:04Z</time>
      </trkpt>
      <trkpt lat="47.36332" lon="6.08426">
        <ele>219.317993</ele>
        <time>2011-10-15T16:57:06Z</time>
      </trkpt>
      <trkpt lat="47.36346" lon="6.08427">
        <ele>219.798584</ele>
        <time>2011-10-15T16:57:19Z</time>
      </trkpt>
      <trkpt lat="47.36359" lon="6.0843">
        <ele>219.798584</ele>
        <time>2011-10-15T16:57:29Z</time>
      </trkpt>
      <trkpt lat="47.36382" lon="6.08439">
        <ele>220.759888</ele>
        <time>2011-10-15T16:57:50Z</time>
      </trkpt>
      <trkpt lat="47.36384" lon="6.08442">
        <ele>220.759888</ele>
        <time>2011-10-15T16:57:55Z</time>
      </trkpt>
      <trkpt lat="47.36402" lon="6.08453">
        <ele>221.240601</ele>
        <time>2011-10-15T16:58:11Z</time>
      </trkpt>
      <trkpt lat="47.36421" lon="6.08455">
        <ele>222.682495</ele>
        <time>2011-10-15T16:58:29Z</time>
      </trkpt>
      <trkpt lat="47.36434" lon="6.0846">
        <ele>222.682495</ele>
        <time>2011-10-15T16:58:48Z</time>
      </trkpt>
      <trkpt lat="47.36437" lon="6.08463">
        <ele>223.163208</ele>
        <time>2011-10-15T16:58:52Z</time>
      </trkpt>
      <trkpt lat="47.36451" lon="6.08469">
        <ele>223.643799</ele>
        <time>2011-10-15T16:59:05Z</time>
      </trkpt>
      <trkpt lat="47.36475" lon="6.08491">
        <ele>224.605225</ele>
        <time>2011-10-15T16:59:30Z</time>
      </trkpt>
      <trkpt lat="47.36476" lon="6.08492">
        <ele>225.085938</ele>
        <time>2011-10-15T16:59:31Z</time>
      </trkpt>
      <trkpt lat="47.36484" lon="6.08497">
        <ele>226.527832</ele>
        <time>2011-10-15T16:59:38Z</time>
      </trkpt>
      <trkpt lat="47.36493" lon="6.08508">
        <ele>226.527832</ele>
        <time>2011-10-15T16:59:48Z</time>
      </trkpt>
      <trkpt lat="47.3651" lon="6.08525">
        <ele>227.969727</ele>
        <time>2011-10-15T17:00:05Z</time>
      </trkpt>
      <trkpt lat="47.36535" lon="6.0854">
        <ele>229.892334</ele>
        <time>2011-10-15T17:00:26Z</time>
      </trkpt>
      <trkpt lat="47.36557" lon="6.08545">
        <ele>230.373047</ele>
        <time>2011-10-15T17:00:42Z</time>
      </trkpt>
      <trkpt lat="47.36574" lon="6.0855">
        <ele>230.85376</ele>
        <time>2011-10-15T17:00:56Z</time>
      </trkpt>
      <trkpt lat="47.36591" lon="6.08554">
        <ele>230.85376</ele>
        <time>2011-10-15T17:01:09Z</time>
      </trkpt>
      <trkpt lat="47.36611" lon="6.08559">
        <ele>231.334351</ele>
        <time>2011-10-15T17:01:26Z</time>
      </trkpt>
      <trkpt lat="47.36624" lon="6.08563">
        <ele>230.85376</ele>
        <time>2011-10-15T17:01:36Z</time>
      </trkpt>
      <trkpt lat="47.36655" lon="6.08568">
        <ele>231.814941</ele>
        <time>2011-10-15T17:02:00Z</time>
      </trkpt>
      <trkpt lat="47.36671" lon="6.08577">
        <ele>231.334351</ele>
        <time>2011-10-15T17:02:16Z</time>
      </trkpt>
      <trkpt lat="47.36694" lon="6.0858">
        <ele>231.814941</ele>
        <time>2011-10-15T17:02:32Z</time>
      </trkpt>
      <trkpt lat="47.36713" lon="6.08589">
        <ele>231.334351</ele>
        <time>2011-10-15T17:02:52Z</time>
      </trkpt>
      <trkpt lat="47.36726" lon="6.086">
        <ele>231.334351</ele>
        <time>2011-10-15T17:03:19Z</time>
      </trkpt>
      <trkpt lat="47.36745" lon="6.08614">
        <ele>231.814941</ele>
        <time>2011-10-15T17:03:36Z</time>
      </trkpt>
      <trkpt lat="47.3675" lon="6.08619">
        <ele>231.334351</ele>
        <time>2011-10-15T17:03:42Z</time>
      </trkpt>
      <trkpt lat="47.36758" lon="6.08622">
        <ele>231.334351</ele>
        <time>2011-10-15T17:03:50Z</time>
      </trkpt>
      <trkpt lat="47.36781" lon="6.08644">
        <ele>231.334351</ele>
        <time>2011-10-15T17:04:11Z</time>
      </trkpt>
      <trkpt lat="47.36798" lon="6.08656">
        <ele>231.814941</ele>
        <time>2011-10-15T17:04:24Z</time>
      </trkpt>
      <trkpt lat="47.36824" lon="6.08674">
        <ele>231.814941</ele>
        <time>2011-10-15T17:04:43Z</time>
      </trkpt>
      <trkpt lat="47.36842" lon="6.08688">
        <ele>232.295776</ele>
        <time>2011-10-15T17:04:58Z</time>
      </trkpt>
      <trkpt lat="47.36856" lon="6.08699">
        <ele>233.25708</ele>
        <time>2011-10-15T17:05:11Z</time>
      </trkpt>
      <trkpt lat="47.36873" lon="6.0871">
        <ele>233.737671</ele>
        <time>2011-10-15T17:05:27Z</time>
      </trkpt>
      <trkpt lat="47.3688" lon="6.08718">
        <ele>234.218384</ele>
        <time>2011-10-15T17:05:34Z</time>
      </trkpt>
      <trkpt lat="47.36888" lon="6.08724">
        <ele>234.699097</ele>
        <time>2011-10-15T17:05:41Z</time>
      </trkpt>
      <trkpt lat="47.36907" lon="6.08738">
        <ele>235.179688</ele>
        <time>2011-10-15T17:05:55Z</time>
      </trkpt>
      <trkpt lat="47.36925" lon="6.08751">
        <ele>236.140991</ele>
        <time>2011-10-15T17:06:09Z</time>
      </trkpt>
      <trkpt lat="47.3694" lon="6.08763">
        <ele>236.621704</ele>
        <time>2011-10-15T17:06:21Z</time>
      </trkpt>
      <trkpt lat="47.36949" lon="6.08772">
        <ele>236.621704</ele>
        <time>2011-10-15T17:06:30Z</time>
      </trkpt>
      <trkpt lat="47.36964" lon="6.08785">
        <ele>237.102295</ele>
        <time>2011-10-15T17:06:43Z</time>
      </trkpt>
      <trkpt lat="47.36973" lon="6.08796">
        <ele>237.582886</ele>
        <time>2011-10-15T17:06:53Z</time>
      </trkpt>
      <trkpt lat="47.36979" lon="6.08801">
        <ele>237.102295</ele>
        <time>2011-10-15T17:06:58Z</time>
      </trkpt>
      <trkpt lat="47.36981" lon="6.08806">
        <ele>237.582886</ele>
        <time>2011-10-15T17:07:02Z</time>
      </trkpt>
      <trkpt lat="47.36985" lon="6.08812">
        <ele>237.102295</ele>
        <time>2011-10-15T17:07:06Z</time>
      </trkpt>
      <trkpt lat="47.36992" lon="6.08823">
        <ele>237.582886</ele>
        <time>2011-10-15T17:07:16Z</time>
      </trkpt>
      <trkpt lat="47.37006" lon="6.08835">
        <ele>237.582886</ele>
        <time>2011-10-15T17:07:28Z</time>
      </trkpt>
      <trkpt lat="47.37008" lon="6.08837">
        <ele>237.582886</ele>
        <time>2011-10-15T17:07:30Z</time>
      </trkpt>
      <trkpt lat="47.37013" lon="6.08839">
        <ele>237.582886</ele>
        <time>2011-10-15T17:07:33Z</time>
      </trkpt>
      <trkpt lat="47.37019" lon="6.08847">
        <ele>237.582886</ele>
        <time>2011-10-15T17:07:40Z</time>
      </trkpt>
      <trkpt lat="47.37026" lon="6.08855">
        <ele>237.582886</ele>
        <time>2011-10-15T17:07:54Z</time>
      </trkpt>
      <trkpt lat="47.37032" lon="6.08862">
        <ele>237.102295</ele>
        <time>2011-10-15T17:08:03Z</time>
      </trkpt>
      <trkpt lat="47.37044" lon="6.0888">
        <ele>237.102295</ele>
        <time>2011-10-15T17:08:17Z</time>
      </trkpt>
      <trkpt lat="47.37046" lon="6.08881">
        <ele>236.621704</ele>
        <time>2011-10-15T17:08:18Z</time>
      </trkpt>
      <trkpt lat="47.37048" lon="6.08885">
        <ele>236.621704</ele>
        <time>2011-10-15T17:08:21Z</time>
      </trkpt>
      <trkpt lat="47.37052" lon="6.0889">
        <ele>237.102295</ele>
        <time>2011-10-15T17:08:25Z</time>
      </trkpt>
      <trkpt lat="47.37058" lon="6.08901">
        <ele>236.621704</ele>
        <time>2011-10-15T17:08:33Z</time>
      </trkpt>
      <trkpt lat="47.37077" lon="6.08934">
        <ele>235.179688</ele>
        <time>2011-10-15T17:08:56Z</time>
      </trkpt>
      <trkpt lat="47.37082" lon="6.08948">
        <ele>235.179688</ele>
        <time>2011-10-15T17:09:06Z</time>
      </trkpt>
      <trkpt lat="47.37087" lon="6.08952">
        <ele>235.179688</ele>
        <time>2011-10-15T17:09:10Z</time>
      </trkpt>
      <trkpt lat="47.37099" lon="6.08968">
        <ele>234.699097</ele>
        <time>2011-10-15T17:09:23Z</time>
      </trkpt>
      <trkpt lat="47.3711" lon="6.08991">
        <ele>233.737671</ele>
        <time>2011-10-15T17:09:39Z</time>
      </trkpt>
      <trkpt lat="47.37113" lon="6.08996">
        <ele>233.737671</ele>
        <time>2011-10-15T17:09:42Z</time>
      </trkpt>
      <trkpt lat="47.37117" lon="6.09">
        <ele>233.737671</ele>
        <time>2011-10-15T17:09:47Z</time>
      </trkpt>
      <trkpt lat="47.37141" lon="6.09027">
        <ele>232.776489</ele>
        <time>2011-10-15T17:10:08Z</time>
      </trkpt>
      <trkpt lat="47.37145" lon="6.09035">
        <ele>231.814941</ele>
        <time>2011-10-15T17:10:14Z</time>
      </trkpt>
      <trkpt lat="47.37158" lon="6.09052">
        <ele>230.85376</ele>
        <time>2011-10-15T17:10:33Z</time>
      </trkpt>
      <trkpt lat="47.37162" lon="6.09052">
        <ele>231.334351</ele>
        <time>2011-10-15T17:11:00Z</time>
      </trkpt>
      <trkpt lat="47.37158" lon="6.09053">
        <ele>230.85376</ele>
        <time>2011-10-15T17:11:14Z</time>
      </trkpt>
      <trkpt lat="47.37158" lon="6.09067">
        <ele>230.373047</ele>
        <time>2011-10-15T17:11:29Z</time>
      </trkpt>
      <trkpt lat="47.37157" lon="6.09068">
        <ele>230.373047</ele>
        <time>2011-10-15T17:11:30Z</time>
      </trkpt>
      <trkpt lat="47.37154" lon="6.09084">
        <ele>230.85376</ele>
        <time>2011-10-15T17:11:42Z</time>
      </trkpt>
      <trkpt lat="47.37147" lon="6.0911">
        <ele>231.334351</ele>
        <time>2011-10-15T17:11:57Z</time>
      </trkpt>
      <trkpt lat="47.37141" lon="6.09122">
        <ele>231.814941</ele>
        <time>2011-10-15T17:12:06Z</time>
      </trkpt>
      <trkpt lat="47.37134" lon="6.09137">
        <ele>232.776489</ele>
        <time>2011-10-15T17:12:21Z</time>
      </trkpt>
      <trkpt lat="47.37122" lon="6.09161">
        <ele>234.218384</ele>
        <time>2011-10-15T17:12:37Z</time>
      </trkpt>
      <trkpt lat="47.37109" lon="6.09167">
        <ele>234.699097</ele>
        <time>2011-10-15T17:12:54Z</time>
      </trkpt>
      <trkpt lat="47.371" lon="6.09194">
        <ele>235.179688</ele>
        <time>2011-10-15T17:13:10Z</time>
      </trkpt>
      <trkpt lat="47.37096" lon="6.09204">
        <ele>236.140991</ele>
        <time>2011-10-15T17:13:24Z</time>
      </trkpt>
      <trkpt lat="47.37087" lon="6.09218">
        <ele>236.621704</ele>
        <time>2011-10-15T17:13:40Z</time>
      </trkpt>
      <trkpt lat="47.37087" lon="6.09219">
        <ele>237.582886</ele>
        <time>2011-10-15T17:14:23Z</time>
      </trkpt>
    </trkseg>
  </trk>
</gpx>